Kahuku, Hawaii
Current Conditions -  °F | °C
As of 2:45 PM on Wednesday 22 Oct 2014 (Local Time) from PHHI Reporting Station
Moderate Rain Moderate Rain  
Wind Chill: 75°   Ceiling: 1200
Heat Index: 75°   Visibility: 2mi
Dew Point: 72°   Wind: 0mph
Humidity: 89%   Direction: NA
Pressure: 29.99"   Gusts: NA
Location:  21.67°N, 157.94°W
Report Text: PHHI 230045Z 00000KT 2SM RA BR FEW005 BKN012 OVC020 24/22 A2999 RMK AO2A VIS 1 1/4V2 $
Loading
Personal Weather Stations






























Interactive Weather Map
Tropical Storm Tracking
New forecast layout! Learn more

10-Day Weather Forecast

Advertisements
Track Severe Weather on mobile